createdAt,value
2023-03-27T00:00:18.868Z,444.00
2023-03-27T00:00:48.888Z,445.00
2023-03-27T00:01:18.878Z,445.00
2023-03-27T00:01:48.927Z,444.00
2023-03-27T00:02:18.988Z,443.00
2023-03-27T00:02:49.154Z,444.00
2023-03-27T00:03:19.127Z,444.00
2023-03-27T00:03:49.279Z,447.00
2023-03-27T00:04:19.193Z,445.00
2023-03-27T00:04:49.237Z,443.00
2023-03-27T00:05:19.248Z,442.00
2023-03-27T00:05:49.253Z,442.00
2023-03-27T00:06:19.255Z,442.00
2023-03-27T00:06:49.270Z,441.00
2023-03-27T00:07:19.270Z,440.00
2023-03-27T00:07:49.271Z,442.00
2023-03-27T00:08:19.307Z,443.00
2023-03-27T00:08:49.290Z,443.00
2023-03-27T00:09:19.308Z,446.00
2023-03-27T00:09:49.319Z,446.00
2023-03-27T00:10:19.317Z,444.00
2023-03-27T00:10:49.318Z,443.00
2023-03-27T00:11:49.313Z,442.00
2023-03-27T00:12:19.323Z,442.00
2023-03-27T00:12:49.335Z,442.00
2023-03-27T00:13:19.345Z,441.00
2023-03-27T00:13:50.708Z,442.00
2023-03-27T00:14:19.429Z,441.00
2023-03-27T00:14:49.429Z,440.00
2023-03-27T00:15:19.445Z,441.00
2023-03-27T00:15:49.447Z,441.00
2023-03-27T00:16:19.501Z,438.00
2023-03-27T00:16:49.541Z,439.00
2023-03-27T00:17:19.547Z,442.00
2023-03-27T00:17:49.596Z,442.00
2023-03-27T00:18:19.585Z,443.00
2023-03-27T00:18:49.621Z,442.00
2023-03-27T00:19:19.642Z,442.00
2023-03-27T00:19:49.627Z,444.00
2023-03-27T00:20:49.710Z,444.00
2023-03-27T00:21:19.724Z,443.00
2023-03-27T00:21:49.731Z,443.00
2023-03-27T00:22:19.736Z,443.00
2023-03-27T00:22:49.753Z,444.00
2023-03-27T00:23:19.746Z,445.00
2023-03-27T00:23:49.763Z,446.00
2023-03-27T00:24:19.763Z,444.00
2023-03-27T00:24:49.800Z,443.00
2023-03-27T00:25:19.785Z,442.00
2023-03-27T00:26:19.866Z,438.00
2023-03-27T00:26:49.867Z,440.00
2023-03-27T00:27:19.876Z,441.00
2023-03-27T00:27:49.869Z,443.00
2023-03-27T00:28:19.882Z,443.00
2023-03-27T00:28:49.896Z,443.00
2023-03-27T00:29:19.899Z,445.00
2023-03-27T00:29:49.904Z,444.00
2023-03-27T00:30:19.918Z,445.00
2023-03-27T00:30:49.961Z,445.00
2023-03-27T00:31:20.002Z,444.00
2023-03-27T00:31:50.009Z,444.00
2023-03-27T00:32:20.036Z,445.00
2023-03-27T00:32:50.039Z,443.00
2023-03-27T00:33:20.051Z,443.00
2023-03-27T00:33:50.053Z,442.00
2023-03-27T00:34:20.061Z,443.00
2023-03-27T00:34:50.064Z,442.00
2023-03-27T00:35:20.090Z,442.00
2023-03-27T00:35:50.113Z,442.00
2023-03-27T00:36:20.122Z,442.00
2023-03-27T00:36:50.131Z,444.00
2023-03-27T00:37:20.138Z,444.00
2023-03-27T00:37:50.224Z,444.00
2023-03-27T00:38:20.310Z,445.00
2023-03-27T00:38:50.384Z,443.00
2023-03-27T00:39:20.501Z,444.00
2023-03-27T00:39:50.573Z,443.00
2023-03-27T00:40:20.683Z,444.00
2023-03-27T00:40:50.965Z,445.00
2023-03-27T00:41:20.913Z,444.00
2023-03-27T00:41:50.916Z,445.00
2023-03-27T00:42:21.016Z,445.00
2023-03-27T00:42:51.089Z,443.00
2023-03-27T00:43:21.164Z,439.00
2023-03-27T00:43:51.242Z,437.00
2023-03-27T00:44:21.320Z,435.00
2023-03-27T00:44:51.412Z,434.00
2023-03-27T00:45:21.495Z,433.00
2023-03-27T00:45:51.623Z,436.00
2023-03-27T00:46:21.707Z,437.00
2023-03-27T00:46:51.777Z,436.00
2023-03-27T00:47:21.863Z,438.00
2023-03-27T00:47:51.992Z,437.00
2023-03-27T00:48:21.980Z,437.00
2023-03-27T00:48:51.984Z,436.00
2023-03-27T00:49:21.996Z,435.00
2023-03-27T00:49:52.006Z,435.00
2023-03-27T00:50:22.011Z,436.00
2023-03-27T00:50:52.020Z,438.00
2023-03-27T00:51:22.032Z,438.00
2023-03-27T00:51:52.027Z,440.00
2023-03-27T00:52:22.041Z,439.00
2023-03-27T00:52:52.047Z,438.00
2023-03-27T00:53:22.063Z,438.00
2023-03-27T00:53:52.057Z,438.00
2023-03-27T00:54:22.207Z,439.00
2023-03-27T00:54:52.111Z,440.00
2023-03-27T00:55:52.232Z,442.00
2023-03-27T00:56:22.213Z,440.00
2023-03-27T00:57:22.308Z,441.00
2023-03-27T00:57:52.314Z,442.00
2023-03-27T00:58:22.315Z,442.00
2023-03-27T00:58:52.324Z,442.00
2023-03-27T00:59:22.354Z,442.00
2023-03-27T00:59:52.341Z,443.00
2023-03-27T01:00:22.370Z,442.00
2023-03-27T01:00:52.364Z,442.00
2023-03-27T01:01:22.389Z,442.00
2023-03-27T01:02:22.509Z,443.00
2023-03-27T01:02:52.631Z,443.00
2023-03-27T01:03:22.759Z,443.00
2023-03-27T01:03:52.806Z,444.00
2023-03-27T01:04:22.727Z,445.00
2023-03-27T01:04:52.739Z,446.00
2023-03-27T01:05:22.730Z,443.00
2023-03-27T01:05:52.742Z,445.00
2023-03-27T01:06:22.744Z,445.00
2023-03-27T01:06:52.760Z,444.00
2023-03-27T01:07:22.757Z,446.00
2023-03-27T01:07:59.981Z,443.00
2023-03-27T01:08:22.865Z,443.00
2023-03-27T01:08:52.880Z,443.00
2023-03-27T01:09:22.871Z,444.00
2023-03-27T01:09:52.890Z,446.00
2023-03-27T01:10:22.894Z,448.00
2023-03-27T01:10:52.904Z,449.00
2023-03-27T01:11:22.930Z,448.00
2023-03-27T01:11:52.917Z,447.00
2023-03-27T01:12:53.003Z,446.00
2023-03-27T01:13:23.014Z,445.00
2023-03-27T01:13:53.021Z,443.00
2023-03-27T01:14:23.065Z,445.00
2023-03-27T01:14:53.089Z,444.00
2023-03-27T01:15:23.089Z,445.00
2023-03-27T01:15:53.136Z,445.00
2023-03-27T01:16:23.138Z,442.00
2023-03-27T01:16:53.129Z,442.00
2023-03-27T01:17:23.191Z,441.00
2023-03-27T01:17:53.318Z,442.00
2023-03-27T01:18:23.302Z,442.00
2023-03-27T01:18:53.298Z,443.00
2023-03-27T01:19:23.302Z,444.00
2023-03-27T01:19:53.317Z,443.00
2023-03-27T01:20:23.315Z,443.00
2023-03-27T01:20:53.370Z,442.00
2023-03-27T01:21:23.432Z,442.00
2023-03-27T01:21:53.431Z,442.00
2023-03-27T01:22:23.446Z,441.00
2023-03-27T01:22:53.456Z,441.00
2023-03-27T01:23:35.949Z,440.00
2023-03-27T01:23:59.502Z,441.00
2023-03-27T01:24:23.671Z,442.00
2023-03-27T01:24:53.681Z,444.00
2023-03-27T01:25:23.701Z,445.00
2023-03-27T01:25:53.703Z,444.00
2023-03-27T01:26:53.834Z,445.00
2023-03-27T01:27:23.815Z,445.00
2023-03-27T01:28:23.915Z,441.00
2023-03-27T01:28:53.920Z,441.00
2023-03-27T01:29:23.930Z,445.00
2023-03-27T01:29:53.950Z,445.00
2023-03-27T01:30:23.957Z,443.00
2023-03-27T01:30:54.176Z,441.00
2023-03-27T01:31:23.971Z,442.00
2023-03-27T01:31:54.114Z,443.00
2023-03-27T01:32:24.031Z,443.00
2023-03-27T01:32:54.118Z,441.00
2023-03-27T01:33:24.127Z,441.00
2023-03-27T01:33:54.119Z,443.00
2023-03-27T01:34:24.128Z,443.00
2023-03-27T01:35:01.792Z,442.00
2023-03-27T01:35:24.277Z,442.00
2023-03-27T01:35:54.364Z,441.00
2023-03-27T01:36:24.380Z,442.00
2023-03-27T01:36:54.377Z,444.00
2023-03-27T01:37:24.384Z,446.00
2023-03-27T01:37:54.492Z,446.00
2023-03-27T01:38:24.571Z,447.00
2023-03-27T01:38:54.658Z,446.00
2023-03-27T01:39:24.744Z,446.00
2023-03-27T01:39:54.843Z,444.00
2023-03-27T01:40:24.911Z,444.00
2023-03-27T01:40:55.195Z,441.00
2023-03-27T01:41:25.101Z,441.00
2023-03-27T01:41:55.182Z,443.00
2023-03-27T01:42:25.298Z,443.00
2023-03-27T01:42:55.368Z,442.00
2023-03-27T01:43:25.447Z,443.00
2023-03-27T01:43:55.529Z,441.00
2023-03-27T01:44:25.623Z,441.00
2023-03-27T01:44:55.699Z,442.00
2023-03-27T01:45:25.784Z,443.00
2023-03-27T01:45:55.859Z,443.00
2023-03-27T01:46:26.024Z,440.00
2023-03-27T01:46:56.076Z,441.00
2023-03-27T01:47:26.075Z,444.00
2023-03-27T01:47:56.086Z,443.00
2023-03-27T01:48:26.085Z,445.00
2023-03-27T01:48:56.086Z,445.00
2023-03-27T01:49:26.091Z,446.00
2023-03-27T01:49:56.140Z,446.00
2023-03-27T01:50:26.143Z,444.00
2023-03-27T01:50:56.369Z,445.00
2023-03-27T01:51:26.226Z,445.00
2023-03-27T01:51:56.239Z,441.00
2023-03-27T01:52:26.245Z,441.00
2023-03-27T01:52:56.251Z,441.00
2023-03-27T01:53:26.257Z,442.00
2023-03-27T01:53:56.286Z,445.00
2023-03-27T01:54:26.287Z,446.00
2023-03-27T01:54:56.298Z,444.00
2023-03-27T01:55:26.302Z,443.00
2023-03-27T01:55:56.314Z,443.00
2023-03-27T01:56:26.378Z,442.00
2023-03-27T01:56:56.424Z,443.00
2023-03-27T01:57:26.479Z,444.00
2023-03-27T01:57:56.496Z,444.00
2023-03-27T01:58:26.479Z,444.00
2023-03-27T01:59:26.570Z,445.00
2023-03-27T01:59:56.578Z,445.00
2023-03-27T02:00:26.692Z,445.00
2023-03-27T02:00:56.838Z,445.00
2023-03-27T02:01:26.884Z,447.00
2023-03-27T02:01:56.914Z,448.00
2023-03-27T02:02:26.947Z,449.00
2023-03-27T02:02:57.022Z,451.00
2023-03-27T02:03:27.045Z,452.00
2023-03-27T02:03:57.043Z,449.00
2023-03-27T02:04:27.097Z,450.00
2023-03-27T02:04:57.135Z,449.00
2023-03-27T02:05:27.153Z,448.00
2023-03-27T02:05:57.158Z,449.00
2023-03-27T02:06:27.172Z,449.00
2023-03-27T02:06:57.187Z,452.00
2023-03-27T02:07:27.195Z,451.00
2023-03-27T02:07:57.193Z,451.00
2023-03-27T02:08:27.192Z,452.00
2023-03-27T02:08:57.193Z,451.00
2023-03-27T02:09:27.204Z,449.00
2023-03-27T02:09:57.216Z,449.00
2023-03-27T02:10:27.225Z,449.00
2023-03-27T02:10:57.509Z,450.00
2023-03-27T02:11:27.326Z,449.00
2023-03-27T02:11:57.323Z,450.00
2023-03-27T02:12:27.329Z,449.00
2023-03-27T02:12:57.334Z,449.00
2023-03-27T02:13:27.357Z,446.00
2023-03-27T02:13:57.339Z,448.00
2023-03-27T02:14:57.435Z,449.00
2023-03-27T02:15:27.536Z,448.00
2023-03-27T02:15:57.554Z,447.00
2023-03-27T02:16:27.592Z,448.00
2023-03-27T02:16:57.584Z,446.00
2023-03-27T02:17:27.603Z,446.00
2023-03-27T02:17:57.681Z,445.00
2023-03-27T02:18:27.689Z,444.00
2023-03-27T02:18:57.702Z,442.00
2023-03-27T02:19:27.709Z,443.00
2023-03-27T02:19:57.715Z,442.00
2023-03-27T02:20:27.715Z,441.00
2023-03-27T02:20:57.926Z,440.00
2023-03-27T02:21:27.805Z,439.00
2023-03-27T02:21:57.798Z,439.00
2023-03-27T02:22:38.334Z,440.00
2023-03-27T02:22:57.912Z,440.00
2023-03-27T02:23:27.915Z,442.00
2023-03-27T02:23:57.926Z,442.00
2023-03-27T02:24:27.930Z,442.00
2023-03-27T02:24:57.926Z,442.00
2023-03-27T02:25:27.932Z,443.00
2023-03-27T02:25:57.942Z,445.00
2023-03-27T02:26:27.946Z,444.00
2023-03-27T02:26:57.953Z,444.00
2023-03-27T02:27:27.949Z,445.00
2023-03-27T02:27:57.969Z,445.00
2023-03-27T02:28:27.978Z,446.00
2023-03-27T02:28:58.003Z,445.00
2023-03-27T02:29:27.984Z,445.00
2023-03-27T02:30:28.079Z,444.00
2023-03-27T02:31:06.934Z,445.00
2023-03-27T02:31:33.219Z,445.00
2023-03-27T02:32:37.546Z,464.00
2023-03-27T02:33:07.531Z,465.00
2023-03-27T02:33:37.585Z,463.00
2023-03-27T02:34:07.647Z,462.00
2023-03-27T02:34:37.681Z,464.00
2023-03-27T02:35:07.726Z,463.00
2023-03-27T02:35:37.780Z,464.00
2023-03-27T02:36:09.950Z,463.00
2023-03-27T02:36:37.830Z,464.00
2023-03-27T02:37:07.864Z,465.00
2023-03-27T02:37:37.910Z,462.00
2023-03-27T02:38:07.955Z,464.00
2023-03-27T02:38:37.989Z,462.00
2023-03-27T02:39:08.039Z,461.00
2023-03-27T02:39:38.097Z,463.00
2023-03-27T02:40:08.120Z,463.00
2023-03-27T02:40:39.994Z,465.00
2023-03-27T02:41:08.204Z,463.00
2023-03-27T02:41:38.249Z,461.00
2023-03-27T02:42:08.307Z,459.00
2023-03-27T02:42:38.392Z,460.00
2023-03-27T02:43:08.526Z,461.00
2023-03-27T02:43:38.485Z,462.00
2023-03-27T02:44:08.600Z,462.00
2023-03-27T02:44:46.807Z,461.00
2023-03-27T02:45:08.738Z,461.00
2023-03-27T02:45:38.865Z,460.00
2023-03-27T02:46:09.159Z,460.00
2023-03-27T02:46:39.004Z,460.00
2023-03-27T02:47:09.102Z,460.00
2023-03-27T02:47:39.214Z,460.00
2023-03-27T02:48:09.378Z,461.00
2023-03-27T02:48:39.231Z,463.00
2023-03-27T02:49:09.327Z,461.00
2023-03-27T02:49:39.414Z,461.00
2023-03-27T02:50:09.500Z,458.00
2023-03-27T02:50:39.577Z,458.00
2023-03-27T02:51:09.687Z,456.00
2023-03-27T02:51:39.770Z,458.00
2023-03-27T02:52:09.858Z,460.00
2023-03-27T02:52:39.923Z,460.00
2023-03-27T02:53:10.010Z,461.00
2023-03-27T02:53:40.100Z,461.00
2023-03-27T02:54:10.196Z,459.00
2023-03-27T02:54:40.283Z,460.00
2023-03-27T02:55:10.393Z,459.00
2023-03-27T02:55:40.454Z,457.00
2023-03-27T02:56:10.539Z,456.00
2023-03-27T02:56:40.655Z,458.00
2023-03-27T02:57:10.753Z,458.00
2023-03-27T02:57:40.807Z,459.00
2023-03-27T02:58:10.882Z,459.00
2023-03-27T02:58:40.977Z,458.00
2023-03-27T02:59:11.088Z,458.00
2023-03-27T02:59:41.158Z,458.00
2023-03-27T03:00:11.233Z,458.00
2023-03-27T03:00:41.319Z,456.00
2023-03-27T03:01:11.427Z,457.00
2023-03-27T03:01:41.531Z,457.00
2023-03-27T03:02:11.526Z,458.00
2023-03-27T03:02:41.672Z,458.00
2023-03-27T03:03:11.755Z,457.00
2023-03-27T03:03:41.787Z,457.00
2023-03-27T03:04:11.769Z,457.00
2023-03-27T03:04:41.903Z,458.00
2023-03-27T03:05:11.869Z,460.00
2023-03-27T03:05:41.972Z,460.00
2023-03-27T03:06:12.041Z,462.00
2023-03-27T03:06:42.117Z,461.00
2023-03-27T03:07:12.195Z,460.00
2023-03-27T03:07:42.281Z,459.00
2023-03-27T03:08:12.366Z,460.00
2023-03-27T03:08:42.439Z,460.00
2023-03-27T03:09:12.513Z,461.00
2023-03-27T03:09:42.611Z,460.00
2023-03-27T03:10:12.699Z,460.00
2023-03-27T03:10:42.774Z,460.00
2023-03-27T03:11:12.851Z,461.00
2023-03-27T03:11:42.933Z,460.00
2023-03-27T03:12:13.015Z,460.00
2023-03-27T03:12:43.106Z,461.00
2023-03-27T03:13:13.180Z,460.00
2023-03-27T03:13:43.242Z,461.00
2023-03-27T03:14:13.358Z,460.00
2023-03-27T03:14:43.413Z,459.00
2023-03-27T03:15:13.497Z,459.00
2023-03-27T03:15:43.575Z,459.00
2023-03-27T03:16:13.660Z,461.00
2023-03-27T03:16:43.762Z,458.00
2023-03-27T03:17:13.746Z,457.00
2023-03-27T03:17:43.856Z,457.00
2023-03-27T03:18:13.915Z,456.00
2023-03-27T03:18:44.003Z,457.00
2023-03-27T03:19:14.078Z,460.00
2023-03-27T03:19:44.174Z,459.00
2023-03-27T03:20:14.263Z,459.00
2023-03-27T03:20:44.334Z,458.00
2023-03-27T03:21:14.435Z,457.00
2023-03-27T03:21:44.507Z,456.00
2023-03-27T03:22:14.598Z,453.00
2023-03-27T03:22:44.682Z,453.00
2023-03-27T03:23:14.758Z,454.00
2023-03-27T03:23:58.027Z,455.00
2023-03-27T03:24:14.902Z,457.00
2023-03-27T03:24:44.999Z,455.00
2023-03-27T03:25:15.139Z,455.00
2023-03-27T03:25:45.092Z,454.00
2023-03-27T03:26:15.179Z,456.00
2023-03-27T03:26:45.311Z,457.00
2023-03-27T03:27:15.293Z,457.00
2023-03-27T03:27:45.367Z,456.00
2023-03-27T03:28:15.448Z,456.00
2023-03-27T03:29:01.092Z,455.00
2023-03-27T03:29:15.600Z,455.00
2023-03-27T03:29:45.700Z,457.00
2023-03-27T03:30:17.451Z,457.00
2023-03-27T03:30:45.812Z,456.00
2023-03-27T03:31:15.799Z,455.00
2023-03-27T03:31:45.867Z,456.00
2023-03-27T03:32:15.964Z,455.00
2023-03-27T03:32:46.023Z,454.00
2023-03-27T03:33:16.043Z,454.00
2023-03-27T03:33:46.095Z,455.00
2023-03-27T03:34:16.383Z,453.00
2023-03-27T03:34:46.236Z,452.00
2023-03-27T03:35:16.292Z,450.00
2023-03-27T03:35:46.340Z,455.00
2023-03-27T03:36:16.369Z,456.00
2023-03-27T03:36:46.408Z,459.00
2023-03-27T03:37:16.436Z,457.00
2023-03-27T03:37:46.704Z,458.00
2023-03-27T03:38:16.538Z,458.00
2023-03-27T03:38:46.569Z,459.00
2023-03-27T03:39:16.611Z,459.00
2023-03-27T03:39:46.660Z,457.00
2023-03-27T03:40:16.686Z,455.00
2023-03-27T03:40:46.722Z,454.00
2023-03-27T03:41:16.754Z,454.00
2023-03-27T03:41:46.797Z,453.00
2023-03-27T03:42:22.813Z,455.00
2023-03-27T03:42:46.918Z,455.00
2023-03-27T03:43:17.004Z,454.00
2023-03-27T03:43:47.071Z,453.00
2023-03-27T03:44:17.154Z,453.00
2023-03-27T03:44:47.241Z,454.00
2023-03-27T03:45:17.429Z,452.00
2023-03-27T03:45:47.382Z,454.00
2023-03-27T03:46:17.454Z,459.00
2023-03-27T03:46:47.545Z,455.00
2023-03-27T03:47:17.617Z,453.00
2023-03-27T03:47:47.807Z,453.00
2023-03-27T03:48:17.781Z,452.00
2023-03-27T03:48:47.854Z,450.00
2023-03-27T03:49:17.939Z,449.00
2023-03-27T03:49:48.038Z,448.00
2023-03-27T03:50:18.108Z,450.00
2023-03-27T03:50:48.185Z,450.00
2023-03-27T03:51:18.274Z,448.00
2023-03-27T03:51:48.370Z,449.00
2023-03-27T03:52:18.425Z,448.00
2023-03-27T03:52:48.523Z,447.00
2023-03-27T03:53:18.602Z,448.00
2023-03-27T03:53:48.687Z,449.00
2023-03-27T03:54:18.758Z,449.00
2023-03-27T03:54:48.846Z,450.00
2023-03-27T03:55:18.927Z,451.00
2023-03-27T03:55:49.037Z,452.00
2023-03-27T03:56:19.024Z,453.00
2023-03-27T03:56:49.207Z,453.00
2023-03-27T03:57:19.217Z,450.00
2023-03-27T03:57:49.212Z,450.00
2023-03-27T03:58:19.293Z,448.00
2023-03-27T03:58:49.376Z,453.00
2023-03-27T03:59:19.459Z,450.00
2023-03-27T03:59:49.541Z,451.00
2023-03-27T04:00:19.649Z,452.00
2023-03-27T04:00:49.709Z,452.00
2023-03-27T04:01:19.795Z,449.00
2023-03-27T04:01:49.899Z,450.00
2023-03-27T04:02:20.015Z,450.00
2023-03-27T04:02:50.060Z,450.00
2023-03-27T04:03:20.209Z,451.00
2023-03-27T04:03:50.211Z,452.00
2023-03-27T04:04:20.100Z,452.00
2023-03-27T04:04:50.183Z,453.00
2023-03-27T04:05:20.261Z,454.00
2023-03-27T04:05:50.350Z,454.00
2023-03-27T04:06:20.897Z,453.00
2023-03-27T04:06:50.525Z,454.00
2023-03-27T04:07:20.598Z,455.00
2023-03-27T04:07:50.743Z,454.00
2023-03-27T04:08:20.725Z,455.00
2023-03-27T04:08:50.800Z,454.00
2023-03-27T04:09:20.878Z,457.00
2023-03-27T04:09:50.953Z,455.00
2023-03-27T04:10:21.041Z,460.00
2023-03-27T04:10:51.120Z,462.00
2023-03-27T04:11:21.252Z,463.00
2023-03-27T04:11:51.207Z,463.00
2023-03-27T04:12:21.283Z,466.00
2023-03-27T04:12:51.436Z,468.00
2023-03-27T04:13:21.405Z,468.00
2023-03-27T04:13:51.479Z,470.00
2023-03-27T04:14:21.557Z,469.00
2023-03-27T04:14:51.641Z,469.00
2023-03-27T04:15:21.752Z,470.00
2023-03-27T04:15:51.868Z,470.00
2023-03-27T04:16:21.839Z,470.00
2023-03-27T04:16:51.899Z,472.00
2023-03-27T04:17:22.095Z,474.00
2023-03-27T04:17:52.156Z,476.00
2023-03-27T04:18:22.262Z,477.00
2023-03-27T04:18:52.274Z,478.00
2023-03-27T04:19:22.340Z,479.00
2023-03-27T04:19:52.312Z,480.00
2023-03-27T04:20:22.390Z,483.00
2023-03-27T04:20:52.482Z,483.00
2023-03-27T04:21:22.563Z,483.00
2023-03-27T04:21:52.651Z,485.00
2023-03-27T04:22:22.766Z,487.00
2023-03-27T04:22:54.297Z,486.00
2023-03-27T04:23:22.813Z,487.00
2023-03-27T04:23:52.894Z,485.00
2023-03-27T04:24:22.977Z,487.00
2023-03-27T04:24:53.076Z,490.00
2023-03-27T04:25:23.140Z,488.00
2023-03-27T04:25:53.369Z,489.00
2023-03-27T04:26:23.310Z,489.00
2023-03-27T04:26:53.287Z,490.00
2023-03-27T04:27:23.373Z,491.00
2023-03-27T04:27:53.481Z,490.00
2023-03-27T04:28:23.468Z,487.00
2023-03-27T04:28:53.556Z,489.00
2023-03-27T04:29:23.635Z,490.00
2023-03-27T04:29:53.720Z,491.00
2023-03-27T04:30:23.811Z,492.00
2023-03-27T04:30:53.777Z,492.00
2023-03-27T04:31:23.897Z,493.00
2023-03-27T04:31:53.898Z,492.00
2023-03-27T04:32:23.977Z,493.00
2023-03-27T04:32:54.167Z,493.00
2023-03-27T04:33:24.140Z,493.00
2023-03-27T04:33:54.155Z,491.00
2023-03-27T04:34:24.206Z,496.00
2023-03-27T04:34:54.241Z,495.00
2023-03-27T04:35:24.297Z,496.00
2023-03-27T04:36:06.408Z,494.00
2023-03-27T04:36:24.435Z,492.00
2023-03-27T04:36:54.416Z,491.00
2023-03-27T04:37:24.462Z,495.00
2023-03-27T04:37:54.485Z,497.00
2023-03-27T04:38:24.537Z,498.00
2023-03-27T04:38:54.568Z,500.00
2023-03-27T04:39:24.596Z,500.00
2023-03-27T04:39:54.640Z,499.00
2023-03-27T04:40:24.675Z,500.00
2023-03-27T04:40:55.021Z,500.00
2023-03-27T04:41:24.741Z,502.00
2023-03-27T04:41:54.767Z,504.00
2023-03-27T04:42:24.832Z,505.00
2023-03-27T04:42:54.919Z,505.00
2023-03-27T04:43:25.003Z,506.00
2023-03-27T04:43:55.087Z,507.00
2023-03-27T04:44:25.171Z,510.00
2023-03-27T04:44:55.277Z,510.00
2023-03-27T04:45:25.396Z,512.00
2023-03-27T04:45:55.454Z,512.00
2023-03-27T04:46:25.624Z,509.00
2023-03-27T04:46:55.631Z,508.00
2023-03-27T04:47:25.646Z,510.00
2023-03-27T04:47:55.802Z,512.00
2023-03-27T04:48:25.768Z,515.00
2023-03-27T04:48:55.860Z,515.00
2023-03-27T04:49:25.946Z,517.00
2023-03-27T04:49:56.032Z,518.00
2023-03-27T04:50:26.116Z,518.00
2023-03-27T04:50:56.413Z,516.00
2023-03-27T04:51:26.201Z,516.00
2023-03-27T04:51:56.279Z,515.00
2023-03-27T04:52:26.369Z,514.00
2023-03-27T04:52:56.463Z,515.00
2023-03-27T04:53:26.544Z,515.00
2023-03-27T04:53:56.633Z,514.00
2023-03-27T04:54:26.720Z,514.00
2023-03-27T04:54:56.809Z,515.00
2023-03-27T04:55:26.904Z,515.00
2023-03-27T04:55:56.980Z,516.00
2023-03-27T04:56:27.052Z,516.00
2023-03-27T04:56:57.178Z,520.00
2023-03-27T04:57:27.144Z,523.00
2023-03-27T04:57:57.235Z,524.00
2023-03-27T04:58:27.324Z,525.00
2023-03-27T04:59:36.508Z,539.00
2023-03-27T05:00:06.577Z,539.00
2023-03-27T05:00:36.667Z,537.00
2023-03-27T05:01:06.712Z,535.00
2023-03-27T05:01:36.760Z,532.00
2023-03-27T05:02:06.806Z,532.00
2023-03-27T05:02:36.900Z,534.00
2023-03-27T05:03:06.929Z,537.00
2023-03-27T05:03:36.924Z,540.00
2023-03-27T05:04:06.946Z,539.00
2023-03-27T05:04:36.983Z,539.00
2023-03-27T05:05:07.040Z,538.00
2023-03-27T05:05:37.063Z,539.00
2023-03-27T05:06:07.094Z,538.00
2023-03-27T05:06:39.270Z,538.00
2023-03-27T05:07:07.234Z,538.00
2023-03-27T05:07:37.274Z,541.00
2023-03-27T05:08:07.301Z,541.00
2023-03-27T05:08:37.347Z,542.00
2023-03-27T05:09:07.381Z,542.00
2023-03-27T05:09:37.432Z,550.00
2023-03-27T05:10:07.510Z,548.00
2023-03-27T05:10:37.579Z,548.00
2023-03-27T05:11:07.677Z,549.00
2023-03-27T05:11:37.747Z,551.00
2023-03-27T05:12:07.832Z,551.00
2023-03-27T05:12:37.903Z,549.00
2023-03-27T05:13:07.998Z,550.00
2023-03-27T05:13:38.083Z,557.00
2023-03-27T05:14:08.167Z,552.00
2023-03-27T05:14:38.258Z,552.00
2023-03-27T05:15:08.343Z,550.00
2023-03-27T05:15:38.426Z,550.00
2023-03-27T05:16:08.536Z,555.00
2023-03-27T05:16:38.655Z,553.00
2023-03-27T05:17:08.660Z,552.00
2023-03-27T05:17:38.768Z,551.00
2023-03-27T05:18:09.125Z,550.00
2023-03-27T05:18:41.992Z,551.00
2023-03-27T05:19:08.944Z,551.00
2023-03-27T05:19:39.029Z,552.00
2023-03-27T05:20:09.110Z,553.00
2023-03-27T05:20:39.185Z,567.00
2023-03-27T05:21:09.272Z,576.00
2023-03-27T05:21:39.362Z,588.00
2023-03-27T05:22:09.459Z,608.00
2023-03-27T05:22:39.535Z,611.00
2023-03-27T05:23:09.659Z,610.00
2023-03-27T05:23:39.674Z,608.00
2023-03-27T05:24:09.760Z,608.00
2023-03-27T05:24:39.842Z,613.00
2023-03-27T05:25:09.927Z,612.00
2023-03-27T05:25:40.063Z,619.00
2023-03-27T05:26:10.004Z,623.00
2023-03-27T05:26:40.093Z,623.00
2023-03-27T05:27:10.173Z,624.00
2023-03-27T05:27:40.296Z,669.00
2023-03-27T05:28:10.364Z,677.00
2023-03-27T05:28:40.444Z,663.00
2023-03-27T05:29:10.537Z,659.00
2023-03-27T05:29:46.817Z,658.00
2023-03-27T05:30:10.674Z,657.00
2023-03-27T05:30:40.792Z,658.00
2023-03-27T05:31:10.984Z,657.00
2023-03-27T05:31:40.891Z,661.00
2023-03-27T05:32:10.967Z,658.00
2023-03-27T05:32:41.091Z,656.00
2023-03-27T05:33:11.073Z,659.00
2023-03-27T05:33:41.151Z,663.00
2023-03-27T05:34:11.223Z,664.00
2023-03-27T05:34:41.313Z,665.00
2023-03-27T05:35:11.405Z,665.00
2023-03-27T05:35:41.523Z,665.00
2023-03-27T05:36:11.598Z,670.00
2023-03-27T05:36:41.673Z,667.00
2023-03-27T05:37:11.770Z,670.00
2023-03-27T05:37:41.845Z,671.00
2023-03-27T05:38:11.925Z,674.00
2023-03-27T05:38:42.021Z,674.00
2023-03-27T05:39:12.099Z,676.00
2023-03-27T05:39:42.178Z,677.00
2023-03-27T05:40:12.315Z,705.00
2023-03-27T05:40:42.358Z,695.00
2023-03-27T05:41:12.445Z,686.00
2023-03-27T05:41:42.524Z,688.00
2023-03-27T05:42:12.610Z,689.00
2023-03-27T05:42:42.707Z,692.00
2023-03-27T05:43:12.772Z,694.00
2023-03-27T05:43:42.860Z,700.00
2023-03-27T05:44:12.944Z,703.00
2023-03-27T05:44:43.033Z,712.00
2023-03-27T05:45:13.123Z,716.00
2023-03-27T05:45:43.235Z,722.00
2023-03-27T05:46:13.343Z,726.00
2023-03-27T05:46:43.459Z,711.00
2023-03-27T05:47:13.408Z,699.00
2023-03-27T05:47:43.536Z,704.00
2023-03-27T05:48:13.572Z,703.00
2023-03-27T05:48:43.589Z,703.00
2023-03-27T05:49:13.674Z,705.00
2023-03-27T05:49:43.757Z,707.00
2023-03-27T05:50:13.843Z,706.00
2023-03-27T05:50:43.918Z,706.00
2023-03-27T05:51:14.003Z,705.00
2023-03-27T05:51:47.012Z,706.00
2023-03-27T05:52:14.178Z,707.00
2023-03-27T05:52:44.267Z,709.00
2023-03-27T05:53:14.353Z,712.00
2023-03-27T05:53:44.445Z,711.00
2023-03-27T05:54:14.528Z,714.00
2023-03-27T05:54:44.602Z,717.00
2023-03-27T05:55:14.704Z,720.00
2023-03-27T05:55:44.803Z,716.00
2023-03-27T05:56:14.881Z,713.00
2023-03-27T05:56:44.995Z,713.00
2023-03-27T05:57:15.025Z,710.00
2023-03-27T05:57:44.972Z,715.00
2023-03-27T05:58:15.064Z,715.00
2023-03-27T05:58:45.155Z,716.00
2023-03-27T05:59:15.211Z,715.00
2023-03-27T05:59:45.276Z,717.00
2023-03-27T06:00:15.308Z,718.00
2023-03-27T06:00:45.345Z,720.00
2023-03-27T06:01:15.400Z,721.00
2023-03-27T06:01:45.450Z,721.00
2023-03-27T06:02:15.528Z,720.00
2023-03-27T06:02:45.657Z,720.00
2023-03-27T06:03:15.726Z,720.00
2023-03-27T06:03:45.934Z,717.00
2023-03-27T06:04:15.831Z,717.00
2023-03-27T06:04:45.942Z,719.00
2023-03-27T06:05:15.891Z,719.00
2023-03-27T06:05:45.929Z,719.00
2023-03-27T06:06:15.976Z,719.00
2023-03-27T06:06:46.001Z,719.00
2023-03-27T06:07:16.045Z,720.00
2023-03-27T06:07:46.076Z,720.00
2023-03-27T06:08:16.138Z,721.00
2023-03-27T06:08:46.229Z,721.00
2023-03-27T06:09:16.270Z,721.00
2023-03-27T06:09:46.346Z,723.00
2023-03-27T06:10:16.443Z,724.00
2023-03-27T06:10:46.553Z,724.00
2023-03-27T06:11:16.551Z,725.00
2023-03-27T06:11:46.636Z,726.00
2023-03-27T06:12:16.771Z,725.00
2023-03-27T06:12:48.730Z,724.00
2023-03-27T06:13:16.822Z,723.00
2023-03-27T06:13:46.968Z,726.00
2023-03-27T06:14:16.936Z,725.00
2023-03-27T06:14:47.031Z,728.00
2023-03-27T06:15:17.109Z,731.00
2023-03-27T06:15:47.223Z,732.00
2023-03-27T06:16:17.358Z,735.00
2023-03-27T06:16:47.322Z,737.00
2023-03-27T06:17:17.410Z,739.00
2023-03-27T06:17:47.647Z,741.00
2023-03-27T06:18:17.603Z,740.00
2023-03-27T06:18:47.717Z,741.00
2023-03-27T06:19:17.796Z,744.00
2023-03-27T06:19:47.881Z,744.00
2023-03-27T06:20:17.965Z,746.00
2023-03-27T06:20:48.047Z,748.00
2023-03-27T06:21:18.129Z,749.00
2023-03-27T06:21:48.198Z,754.00
2023-03-27T06:22:18.292Z,756.00